sensor_id;sensor_type;location;lat;lon;timestamp;temperature;humidity
16287;DHT22;8251;53.568;10.018;2024-03-02T00:00:38;12.90;86.10
16287;DHT22;8251;53.568;10.018;2024-03-02T00:03:06;12.90;86.20
16287;DHT22;8251;53.568;10.018;2024-03-02T00:05:35;12.90;86.20
16287;DHT22;8251;53.568;10.018;2024-03-02T00:08:05;12.90;86.20
16287;DHT22;8251;53.568;10.018;2024-03-02T00:10:37;12.90;86.20
16287;DHT22;8251;53.568;10.018;2024-03-02T00:13:05;12.90;86.80
16287;DHT22;8251;53.568;10.018;2024-03-02T00:15:46;12.90;86.30
16287;DHT22;8251;53.568;10.018;2024-03-02T00:18:18;12.90;85.90
16287;DHT22;8251;53.568;10.018;2024-03-02T00:20:46;12.90;86.10
16287;DHT22;8251;53.568;10.018;2024-03-02T00:23:15;12.90;86.10
16287;DHT22;8251;53.568;10.018;2024-03-02T00:25:44;12.80;86.10
16287;DHT22;8251;53.568;10.018;2024-03-02T00:28:17;12.90;86.30
16287;DHT22;8251;53.568;10.018;2024-03-02T00:30:56;12.80;85.90
16287;DHT22;8251;53.568;10.018;2024-03-02T00:33:25;12.80;86.00
16287;DHT22;8251;53.568;10.018;2024-03-02T00:35:53;12.70;86.10
16287;DHT22;8251;53.568;10.018;2024-03-02T00:38:20;12.80;86.20
16287;DHT22;8251;53.568;10.018;2024-03-02T00:40:48;12.80;86.10
16287;DHT22;8251;53.568;10.018;2024-03-02T00:43:42;12.80;85.90
16287;DHT22;8251;53.568;10.018;2024-03-02T00:46:13;12.80;85.90
16287;DHT22;8251;53.568;10.018;2024-03-02T00:48:47;12.80;86.10
16287;DHT22;8251;53.568;10.018;2024-03-02T00:51:15;12.80;86.20
16287;DHT22;8251;53.568;10.018;2024-03-02T00:53:42;12.80;86.30
16287;DHT22;8251;53.568;10.018;2024-03-02T00:56:10;12.80;86.50
16287;DHT22;8251;53.568;10.018;2024-03-02T00:58:37;12.70;86.80
16287;DHT22;8251;53.568;10.018;2024-03-02T01:01:04;12.70;87.10
16287;DHT22;8251;53.568;10.018;2024-03-02T01:03:33;12.70;87.40
16287;DHT22;8251;53.568;10.018;2024-03-02T01:06:00;12.70;87.60
16287;DHT22;8251;53.568;10.018;2024-03-02T01:08:27;12.70;88.00
16287;DHT22;8251;53.568;10.018;2024-03-02T01:10:54;12.60;88.20
16287;DHT22;8251;53.568;10.018;2024-03-02T01:13:22;12.60;88.40
16287;DHT22;8251;53.568;10.018;2024-03-02T01:15:50;12.60;88.60
16287;DHT22;8251;53.568;10.018;2024-03-02T01:18:16;12.50;88.70
16287;DHT22;8251;53.568;10.018;2024-03-02T01:20:45;12.50;88.90
16287;DHT22;8251;53.568;10.018;2024-03-02T01:23:12;12.50;89.00
16287;DHT22;8251;53.568;10.018;2024-03-02T01:25:38;12.60;89.20
16287;DHT22;8251;53.568;10.018;2024-03-02T01:28:05;12.60;89.30
16287;DHT22;8251;53.568;10.018;2024-03-02T01:30:32;12.60;89.40
16287;DHT22;8251;53.568;10.018;2024-03-02T01:32:59;12.60;89.40
16287;DHT22;8251;53.568;10.018;2024-03-02T01:35:27;12.60;89.50
16287;DHT22;8251;53.568;10.018;2024-03-02T01:37:55;12.50;89.20
16287;DHT22;8251;53.568;10.018;2024-03-02T01:40:23;12.50;89.50
16287;DHT22;8251;53.568;10.018;2024-03-02T01:42:52;12.50;89.50
16287;DHT22;8251;53.568;10.018;2024-03-02T01:45:19;12.60;89.60
16287;DHT22;8251;53.568;10.018;2024-03-02T01:47:45;12.60;89.60
16287;DHT22;8251;53.568;10.018;2024-03-02T01:50:13;12.50;89.50
16287;DHT22;8251;53.568;10.018;2024-03-02T01:52:40;12.50;89.60
16287;DHT22;8251;53.568;10.018;2024-03-02T01:55:08;12.50;89.50
16287;DHT22;8251;53.568;10.018;2024-03-02T01:57:35;12.50;89.80
16287;DHT22;8251;53.568;10.018;2024-03-02T02:00:02;12.50;89.80
16287;DHT22;8251;53.568;10.018;2024-03-02T02:02:29;12.40;89.90
16287;DHT22;8251;53.568;10.018;2024-03-02T02:04:56;12.50;90.00
16287;DHT22;8251;53.568;10.018;2024-03-02T02:07:22;12.40;89.90
16287;DHT22;8251;53.568;10.018;2024-03-02T02:09:49;12.40;90.00
16287;DHT22;8251;53.568;10.018;2024-03-02T02:12:18;12.40;90.00
16287;DHT22;8251;53.568;10.018;2024-03-02T02:14:47;12.40;90.00
16287;DHT22;8251;53.568;10.018;2024-03-02T02:17:15;12.40;90.40
16287;DHT22;8251;53.568;10.018;2024-03-02T02:19:42;12.40;90.00
16287;DHT22;8251;53.568;10.018;2024-03-02T02:22:11;12.40;90.00
16287;DHT22;8251;53.568;10.018;2024-03-02T02:24:39;12.40;90.00
16287;DHT22;8251;53.568;10.018;2024-03-02T02:27:13;12.40;90.00
16287;DHT22;8251;53.568;10.018;2024-03-02T02:29:40;12.30;90.00
16287;DHT22;8251;53.568;10.018;2024-03-02T02:32:07;12.30;90.10
16287;DHT22;8251;53.568;10.018;2024-03-02T02:34:34;12.30;90.10
16287;DHT22;8251;53.568;10.018;2024-03-02T02:37:01;12.20;90.30
16287;DHT22;8251;53.568;10.018;2024-03-02T02:39:29;12.20;90.30
16287;DHT22;8251;53.568;10.018;2024-03-02T02:41:56;12.10;90.30
16287;DHT22;8251;53.568;10.018;2024-03-02T02:44:23;12.10;90.50
16287;DHT22;8251;53.568;10.018;2024-03-02T02:46:49;12.10;90.50
16287;DHT22;8251;53.568;10.018;2024-03-02T02:49:16;12.10;90.50
16287;DHT22;8251;53.568;10.018;2024-03-02T02:51:45;12.00;90.60
16287;DHT22;8251;53.568;10.018;2024-03-02T02:54:11;12.00;90.50
16287;DHT22;8251;53.568;10.018;2024-03-02T02:56:39;12.00;90.60
16287;DHT22;8251;53.568;10.018;2024-03-02T02:59:06;11.90;90.70
16287;DHT22;8251;53.568;10.018;2024-03-02T03:01:33;11.90;90.70
16287;DHT22;8251;53.568;10.018;2024-03-02T03:04:00;11.90;90.70
16287;DHT22;8251;53.568;10.018;2024-03-02T03:06:26;11.90;90.70
16287;DHT22;8251;53.568;10.018;2024-03-02T03:08:53;12.00;90.70
16287;DHT22;8251;53.568;10.018;2024-03-02T03:11:20;12.00;91.10
16287;DHT22;8251;53.568;10.018;2024-03-02T03:13:49;12.00;90.70
16287;DHT22;8251;53.568;10.018;2024-03-02T03:16:16;12.00;90.60
16287;DHT22;8251;53.568;10.018;2024-03-02T03:18:43;12.00;90.60
16287;DHT22;8251;53.568;10.018;2024-03-02T03:21:10;12.00;90.60
16287;DHT22;8251;53.568;10.018;2024-03-02T03:23:37;12.00;90.70
16287;DHT22;8251;53.568;10.018;2024-03-02T03:26:04;12.00;90.60
16287;DHT22;8251;53.568;10.018;2024-03-02T03:28:31;12.00;90.60
16287;DHT22;8251;53.568;10.018;2024-03-02T03:30:59;11.90;90.70
16287;DHT22;8251;53.568;10.018;2024-03-02T03:33:25;12.00;90.70
16287;DHT22;8251;53.568;10.018;2024-03-02T03:35:52;11.90;90.70
16287;DHT22;8251;53.568;10.018;2024-03-02T03:38:19;11.90;90.70
16287;DHT22;8251;53.568;10.018;2024-03-02T03:40:46;11.90;90.80
16287;DHT22;8251;53.568;10.018;2024-03-02T03:43:13;11.90;90.70
16287;DHT22;8251;53.568;10.018;2024-03-02T03:45:40;11.90;90.70
16287;DHT22;8251;53.568;10.018;2024-03-02T03:48:08;11.90;90.70
16287;DHT22;8251;53.568;10.018;2024-03-02T03:50:35;11.90;90.60
16287;DHT22;8251;53.568;10.018;2024-03-02T03:53:03;11.90;90.60
16287;DHT22;8251;53.568;10.018;2024-03-02T03:55:30;11.90;90.70
16287;DHT22;8251;53.568;10.018;2024-03-02T03:57:57;11.90;90.70
16287;DHT22;8251;53.568;10.018;2024-03-02T04:00:24;11.90;90.70
16287;DHT22;8251;53.568;10.018;2024-03-02T04:02:51;11.90;90.60
16287;DHT22;8251;53.568;10.018;2024-03-02T04:05:19;11.90;90.60
16287;DHT22;8251;53.568;10.018;2024-03-02T04:07:46;11.80;90.40
16287;DHT22;8251;53.568;10.018;2024-03-02T04:10:13;11.80;90.50
16287;DHT22;8251;53.568;10.018;2024-03-02T04:12:42;11.80;90.60
16287;DHT22;8251;53.568;10.018;2024-03-02T04:15:09;11.90;90.50
16287;DHT22;8251;53.568;10.018;2024-03-02T04:17:35;11.80;90.50
16287;DHT22;8251;53.568;10.018;2024-03-02T04:20:02;11.80;90.50
16287;DHT22;8251;53.568;10.018;2024-03-02T04:22:33;11.80;90.40
16287;DHT22;8251;53.568;10.018;2024-03-02T04:25:00;11.80;90.40
16287;DHT22;8251;53.568;10.018;2024-03-02T04:27:27;11.70;90.30
16287;DHT22;8251;53.568;10.018;2024-03-02T04:29:54;11.70;90.50
16287;DHT22;8251;53.568;10.018;2024-03-02T04:32:21;11.70;90.40
16287;DHT22;8251;53.568;10.018;2024-03-02T04:34:48;11.70;90.60
16287;DHT22;8251;53.568;10.018;2024-03-02T04:37:15;11.70;90.50
16287;DHT22;8251;53.568;10.018;2024-03-02T04:39:43;11.70;90.50
16287;DHT22;8251;53.568;10.018;2024-03-02T04:42:10;11.80;90.50
16287;DHT22;8251;53.568;10.018;2024-03-02T04:44:40;11.80;90.40
16287;DHT22;8251;53.568;10.018;2024-03-02T04:47:08;11.80;90.30
16287;DHT22;8251;53.568;10.018;2024-03-02T04:49:37;11.80;90.30
16287;DHT22;8251;53.568;10.018;2024-03-02T04:52:04;11.80;90.30
16287;DHT22;8251;53.568;10.018;2024-03-02T04:54:31;11.70;90.30
16287;DHT22;8251;53.568;10.018;2024-03-02T04:56:59;11.70;90.30
16287;DHT22;8251;53.568;10.018;2024-03-02T04:59:26;11.80;90.40
16287;DHT22;8251;53.568;10.018;2024-03-02T05:01:53;11.80;90.40
16287;DHT22;8251;53.568;10.018;2024-03-02T05:04:19;11.90;90.40
16287;DHT22;8251;53.568;10.018;2024-03-02T05:06:46;11.90;90.30
16287;DHT22;8251;53.568;10.018;2024-03-02T05:09:17;11.90;90.20
16287;DHT22;8251;53.568;10.018;2024-03-02T05:11:44;11.90;90.20
16287;DHT22;8251;53.568;10.018;2024-03-02T05:14:32;11.90;90.10
16287;DHT22;8251;53.568;10.018;2024-03-02T05:16:59;11.90;90.00
16287;DHT22;8251;53.568;10.018;2024-03-02T05:19:26;11.90;90.00
16287;DHT22;8251;53.568;10.018;2024-03-02T05:21:52;11.80;90.00
16287;DHT22;8251;53.568;10.018;2024-03-02T05:24:20;11.80;90.00
16287;DHT22;8251;53.568;10.018;2024-03-02T05:26:46;11.80;90.00
16287;DHT22;8251;53.568;10.018;2024-03-02T05:29:13;11.70;90.10
16287;DHT22;8251;53.568;10.018;2024-03-02T05:31:41;11.70;90.20
16287;DHT22;8251;53.568;10.018;2024-03-02T05:34:08;11.70;90.20
16287;DHT22;8251;53.568;10.018;2024-03-02T05:36:35;11.70;90.10
16287;DHT22;8251;53.568;10.018;2024-03-02T05:39:04;11.60;90.00
16287;DHT22;8251;53.568;10.018;2024-03-02T05:41:34;11.60;90.10
16287;DHT22;8251;53.568;10.018;2024-03-02T05:44:01;11.60;90.10
16287;DHT22;8251;53.568;10.018;2024-03-02T05:46:28;11.60;90.20
16287;DHT22;8251;53.568;10.018;2024-03-02T05:48:56;11.60;90.10
16287;DHT22;8251;53.568;10.018;2024-03-02T05:51:23;11.60;90.10
16287;DHT22;8251;53.568;10.018;2024-03-02T05:53:50;11.60;90.20
16287;DHT22;8251;53.568;10.018;2024-03-02T05:56:17;11.60;90.20
16287;DHT22;8251;53.568;10.018;2024-03-02T05:58:43;11.60;90.20
16287;DHT22;8251;53.568;10.018;2024-03-02T06:01:23;11.50;90.20
16287;DHT22;8251;53.568;10.018;2024-03-02T06:03:55;11.60;90.20
16287;DHT22;8251;53.568;10.018;2024-03-02T06:06:22;11.60;90.30
16287;DHT22;8251;53.568;10.018;2024-03-02T06:08:49;11.60;90.20
16287;DHT22;8251;53.568;10.018;2024-03-02T06:11:16;11.60;90.20
16287;DHT22;8251;53.568;10.018;2024-03-02T06:13:43;11.60;90.20
16287;DHT22;8251;53.568;10.018;2024-03-02T06:16:10;11.50;90.20
16287;DHT22;8251;53.568;10.018;2024-03-02T06:18:37;11.50;90.10
16287;DHT22;8251;53.568;10.018;2024-03-02T06:21:06;11.40;90.60
16287;DHT22;8251;53.568;10.018;2024-03-02T06:23:33;11.40;90.30
16287;DHT22;8251;53.568;10.018;2024-03-02T06:26:01;11.40;90.30
16287;DHT22;8251;53.568;10.018;2024-03-02T06:28:28;11.40;90.20
16287;DHT22;8251;53.568;10.018;2024-03-02T06:30:55;11.40;90.20
16287;DHT22;8251;53.568;10.018;2024-03-02T06:33:22;11.40;90.20
16287;DHT22;8251;53.568;10.018;2024-03-02T06:35:49;11.40;90.30
16287;DHT22;8251;53.568;10.018;2024-03-02T06:38:17;11.40;90.30
16287;DHT22;8251;53.568;10.018;2024-03-02T06:40:44;11.40;90.40
16287;DHT22;8251;53.568;10.018;2024-03-02T06:43:10;11.30;90.40
16287;DHT22;8251;53.568;10.018;2024-03-02T06:45:37;11.30;90.40
16287;DHT22;8251;53.568;10.018;2024-03-02T06:48:05;11.30;90.50
16287;DHT22;8251;53.568;10.018;2024-03-02T06:50:31;11.30;90.50
16287;DHT22;8251;53.568;10.018;2024-03-02T06:52:58;11.30;90.40
16287;DHT22;8251;53.568;10.018;2024-03-02T06:55:26;11.30;90.40
16287;DHT22;8251;53.568;10.018;2024-03-02T06:57:54;11.30;90.40
16287;DHT22;8251;53.568;10.018;2024-03-02T07:00:20;11.30;90.50
16287;DHT22;8251;53.568;10.018;2024-03-02T07:02:47;11.30;90.40
16287;DHT22;8251;53.568;10.018;2024-03-02T07:05:15;11.30;90.40
16287;DHT22;8251;53.568;10.018;2024-03-02T07:07:41;11.40;90.40
16287;DHT22;8251;53.568;10.018;2024-03-02T07:10:09;11.40;90.30
16287;DHT22;8251;53.568;10.018;2024-03-02T07:12:37;11.40;90.30
16287;DHT22;8251;53.568;10.018;2024-03-02T07:15:05;11.40;90.20
16287;DHT22;8251;53.568;10.018;2024-03-02T07:17:50;11.40;90.30
16287;DHT22;8251;53.568;10.018;2024-03-02T07:20:17;11.40;90.30
16287;DHT22;8251;53.568;10.018;2024-03-02T07:22:44;11.60;90.30
16287;DHT22;8251;53.568;10.018;2024-03-02T07:25:11;11.60;90.10
16287;DHT22;8251;53.568;10.018;2024-03-02T07:27:40;11.70;90.10
16287;DHT22;8251;53.568;10.018;2024-03-02T07:30:07;11.70;89.90
16287;DHT22;8251;53.568;10.018;2024-03-02T07:32:34;11.70;89.90
16287;DHT22;8251;53.568;10.018;2024-03-02T07:35:01;11.70;89.50
16287;DHT22;8251;53.568;10.018;2024-03-02T07:37:29;11.80;89.70
16287;DHT22;8251;53.568;10.018;2024-03-02T07:39:56;11.80;89.50
16287;DHT22;8251;53.568;10.018;2024-03-02T07:42:23;11.80;89.50
16287;DHT22;8251;53.568;10.018;2024-03-02T07:44:53;11.90;89.50
16287;DHT22;8251;53.568;10.018;2024-03-02T07:47:20;11.90;89.20
16287;DHT22;8251;53.568;10.018;2024-03-02T07:49:47;12.00;89.30
16287;DHT22;8251;53.568;10.018;2024-03-02T07:52:14;12.00;88.90
16287;DHT22;8251;53.568;10.018;2024-03-02T07:54:41;12.00;88.60
16287;DHT22;8251;53.568;10.018;2024-03-02T07:57:08;12.00;88.60
16287;DHT22;8251;53.568;10.018;2024-03-02T07:59:36;12.10;88.70
16287;DHT22;8251;53.568;10.018;2024-03-02T08:02:04;12.20;88.90
16287;DHT22;8251;53.568;10.018;2024-03-02T08:04:31;12.20;88.70
16287;DHT22;8251;53.568;10.018;2024-03-02T08:06:58;12.20;88.50
16287;DHT22;8251;53.568;10.018;2024-03-02T08:09:25;12.30;88.30
16287;DHT22;8251;53.568;10.018;2024-03-02T08:11:52;12.30;87.80
16287;DHT22;8251;53.568;10.018;2024-03-02T08:14:19;12.40;88.30
16287;DHT22;8251;53.568;10.018;2024-03-02T08:16:46;12.40;88.10
16287;DHT22;8251;53.568;10.018;2024-03-02T08:19:14;12.40;87.80
16287;DHT22;8251;53.568;10.018;2024-03-02T08:21:42;12.40;87.70
16287;DHT22;8251;53.568;10.018;2024-03-02T08:24:10;12.50;87.60
16287;DHT22;8251;53.568;10.018;2024-03-02T08:26:37;12.40;87.10
16287;DHT22;8251;53.568;10.018;2024-03-02T08:29:03;12.50;87.50
16287;DHT22;8251;53.568;10.018;2024-03-02T08:31:31;12.50;87.60
16287;DHT22;8251;53.568;10.018;2024-03-02T08:33:57;12.50;87.20
16287;DHT22;8251;53.568;10.018;2024-03-02T08:36:26;12.50;87.20
16287;DHT22;8251;53.568;10.018;2024-03-02T08:38:53;12.50;87.20
16287;DHT22;8251;53.568;10.018;2024-03-02T08:41:20;12.50;87.40
16287;DHT22;8251;53.568;10.018;2024-03-02T08:43:46;12.40;87.40
16287;DHT22;8251;53.568;10.018;2024-03-02T08:46:13;12.50;87.50
16287;DHT22;8251;53.568;10.018;2024-03-02T08:48:41;12.60;87.60
16287;DHT22;8251;53.568;10.018;2024-03-02T08:51:07;12.70;87.50
16287;DHT22;8251;53.568;10.018;2024-03-02T08:53:37;12.80;87.10
16287;DHT22;8251;53.568;10.018;2024-03-02T08:56:04;12.80;86.90
16287;DHT22;8251;53.568;10.018;2024-03-02T08:58:31;12.90;86.90
16287;DHT22;8251;53.568;10.018;2024-03-02T09:00:58;13.00;86.50
16287;DHT22;8251;53.568;10.018;2024-03-02T09:03:25;13.10;86.10
16287;DHT22;8251;53.568;10.018;2024-03-02T09:05:52;13.10;85.80
16287;DHT22;8251;53.568;10.018;2024-03-02T09:08:19;13.20;86.30
16287;DHT22;8251;53.568;10.018;2024-03-02T09:10:48;13.40;86.30
16287;DHT22;8251;53.568;10.018;2024-03-02T09:13:15;13.60;84.30
16287;DHT22;8251;53.568;10.018;2024-03-02T09:15:42;13.90;84.00
16287;DHT22;8251;53.568;10.018;2024-03-02T09:18:09;14.00;83.10
16287;DHT22;8251;53.568;10.018;2024-03-02T09:20:36;14.40;83.40
16287;DHT22;8251;53.568;10.018;2024-03-02T09:23:03;14.60;82.80
16287;DHT22;8251;53.568;10.018;2024-03-02T09:25:30;14.60;80.60
16287;DHT22;8251;53.568;10.018;2024-03-02T09:27:59;14.60;81.00
16287;DHT22;8251;53.568;10.018;2024-03-02T09:30:26;14.70;80.90
16287;DHT22;8251;53.568;10.018;2024-03-02T09:32:52;14.50;80.40
16287;DHT22;8251;53.568;10.018;2024-03-02T09:35:19;14.60;80.60
16287;DHT22;8251;53.568;10.018;2024-03-02T09:37:46;14.70;80.80
16287;DHT22;8251;53.568;10.018;2024-03-02T09:40:13;14.80;81.00
16287;DHT22;8251;53.568;10.018;2024-03-02T09:42:42;14.90;80.40
16287;DHT22;8251;53.568;10.018;2024-03-02T09:45:10;15.10;79.80
16287;DHT22;8251;53.568;10.018;2024-03-02T09:47:38;15.20;79.30
16287;DHT22;8251;53.568;10.018;2024-03-02T09:50:06;15.50;78.70
16287;DHT22;8251;53.568;10.018;2024-03-02T09:52:33;15.70;77.40
16287;DHT22;8251;53.568;10.018;2024-03-02T09:55:01;16.00;76.40
16287;DHT22;8251;53.568;10.018;2024-03-02T09:57:28;16.30;75.60
16287;DHT22;8251;53.568;10.018;2024-03-02T09:59:55;16.60;74.60
16287;DHT22;8251;53.568;10.018;2024-03-02T10:02:23;16.80;75.30
16287;DHT22;8251;53.568;10.018;2024-03-02T10:04:50;17.20;72.20
16287;DHT22;8251;53.568;10.018;2024-03-02T10:07:18;17.20;71.20
16287;DHT22;8251;53.568;10.018;2024-03-02T10:09:46;17.40;71.60
16287;DHT22;8251;53.568;10.018;2024-03-02T10:12:15;17.60;71.10
16287;DHT22;8251;53.568;10.018;2024-03-02T10:14:44;17.70;70.70
16287;DHT22;8251;53.568;10.018;2024-03-02T10:17:14;17.90;70.10
16287;DHT22;8251;53.568;10.018;2024-03-02T10:19:43;18.00;68.90
16287;DHT22;8251;53.568;10.018;2024-03-02T10:22:10;17.90;68.10
16287;DHT22;8251;53.568;10.018;2024-03-02T10:24:38;18.00;68.80
16287;DHT22;8251;53.568;10.018;2024-03-02T10:27:09;18.00;68.50
16287;DHT22;8251;53.568;10.018;2024-03-02T10:29:39;18.00;67.10
16287;DHT22;8251;53.568;10.018;2024-03-02T10:32:09;18.00;67.40
16287;DHT22;8251;53.568;10.018;2024-03-02T10:34:43;18.00;66.40
16287;DHT22;8251;53.568;10.018;2024-03-02T10:37:26;17.90;67.00
16287;DHT22;8251;53.568;10.018;2024-03-02T10:39:53;17.90;67.40
16287;DHT22;8251;53.568;10.018;2024-03-02T10:42:21;17.80;68.00
16287;DHT22;8251;53.568;10.018;2024-03-02T10:44:48;17.80;68.20
16287;DHT22;8251;53.568;10.018;2024-03-02T10:47:18;17.90;68.20
16287;DHT22;8251;53.568;10.018;2024-03-02T10:49:47;17.90;68.00
16287;DHT22;8251;53.568;10.018;2024-03-02T10:52:15;17.80;67.90
16287;DHT22;8251;53.568;10.018;2024-03-02T10:54:44;17.80;67.80
16287;DHT22;8251;53.568;10.018;2024-03-02T10:57:17;17.70;67.70
16287;DHT22;8251;53.568;10.018;2024-03-02T11:00:02;17.70;67.60
16287;DHT22;8251;53.568;10.018;2024-03-02T11:02:50;17.70;67.30
16287;DHT22;8251;53.568;10.018;2024-03-02T11:05:26;17.60;67.60
16287;DHT22;8251;53.568;10.018;2024-03-02T11:07:57;17.60;67.00
16287;DHT22;8251;53.568;10.018;2024-03-02T11:10:33;17.50;66.50
16287;DHT22;8251;53.568;10.018;2024-03-02T11:13:02;17.40;66.60
16287;DHT22;8251;53.568;10.018;2024-03-02T11:15:31;17.30;66.60
16287;DHT22;8251;53.568;10.018;2024-03-02T11:18:01;17.20;67.40
16287;DHT22;8251;53.568;10.018;2024-03-02T11:20:30;17.30;67.70
16287;DHT22;8251;53.568;10.018;2024-03-02T11:22:57;17.30;68.10
16287;DHT22;8251;53.568;10.018;2024-03-02T11:25:27;17.20;67.80
16287;DHT22;8251;53.568;10.018;2024-03-02T11:28:02;17.20;66.90
16287;DHT22;8251;53.568;10.018;2024-03-02T11:30:54;17.10;66.90
16287;DHT22;8251;53.568;10.018;2024-03-02T11:33:25;17.00;67.50
16287;DHT22;8251;53.568;10.018;2024-03-02T11:35:53;17.00;68.10
16287;DHT22;8251;53.568;10.018;2024-03-02T11:38:20;17.00;67.70
16287;DHT22;8251;53.568;10.018;2024-03-02T11:40:48;16.90;67.30
16287;DHT22;8251;53.568;10.018;2024-03-02T11:43:18;16.90;67.80
16287;DHT22;8251;53.568;10.018;2024-03-02T11:45:46;16.90;67.50
16287;DHT22;8251;53.568;10.018;2024-03-02T11:48:14;16.90;68.00
16287;DHT22;8251;53.568;10.018;2024-03-02T11:50:46;16.90;67.60
16287;DHT22;8251;53.568;10.018;2024-03-02T11:53:14;16.80;67.80
16287;DHT22;8251;53.568;10.018;2024-03-02T11:55:41;16.80;68.10
16287;DHT22;8251;53.568;10.018;2024-03-02T11:58:11;16.80;67.50
16287;DHT22;8251;53.568;10.018;2024-03-02T12:00:40;16.80;67.90
16287;DHT22;8251;53.568;10.018;2024-03-02T12:03:08;16.80;67.30
16287;DHT22;8251;53.568;10.018;2024-03-02T12:05:35;16.70;67.30
16287;DHT22;8251;53.568;10.018;2024-03-02T12:08:03;16.70;68.60
16287;DHT22;8251;53.568;10.018;2024-03-02T12:10:32;16.70;67.60
16287;DHT22;8251;53.568;10.018;2024-03-02T12:13:00;16.70;67.90
16287;DHT22;8251;53.568;10.018;2024-03-02T12:15:40;16.60;67.80
16287;DHT22;8251;53.568;10.018;2024-03-02T12:18:07;16.60;68.30
16287;DHT22;8251;53.568;10.018;2024-03-02T12:20:34;16.50;68.00
16287;DHT22;8251;53.568;10.018;2024-03-02T12:23:02;16.60;68.30
16287;DHT22;8251;53.568;10.018;2024-03-02T12:25:31;16.60;67.90
16287;DHT22;8251;53.568;10.018;2024-03-02T12:28:00;16.60;67.80
16287;DHT22;8251;53.568;10.018;2024-03-02T12:30:29;16.60;68.10
16287;DHT22;8251;53.568;10.018;2024-03-02T12:32:58;16.60;67.20
16287;DHT22;8251;53.568;10.018;2024-03-02T12:35:25;16.50;67.60
16287;DHT22;8251;53.568;10.018;2024-03-02T12:37:54;16.60;67.30
16287;DHT22;8251;53.568;10.018;2024-03-02T12:40:22;16.50;67.80
16287;DHT22;8251;53.568;10.018;2024-03-02T12:42:49;16.60;68.40
16287;DHT22;8251;53.568;10.018;2024-03-02T12:45:16;16.70;67.90
16287;DHT22;8251;53.568;10.018;2024-03-02T12:47:49;16.60;67.20
16287;DHT22;8251;53.568;10.018;2024-03-02T12:50:18;16.60;66.90
16287;DHT22;8251;53.568;10.018;2024-03-02T12:52:51;16.60;67.20
16287;DHT22;8251;53.568;10.018;2024-03-02T12:55:20;16.60;67.00
16287;DHT22;8251;53.568;10.018;2024-03-02T12:57:50;16.60;67.20
16287;DHT22;8251;53.568;10.018;2024-03-02T13:00:19;16.50;67.00
16287;DHT22;8251;53.568;10.018;2024-03-02T13:02:48;16.60;67.30
16287;DHT22;8251;53.568;10.018;2024-03-02T13:05:17;16.60;67.40
16287;DHT22;8251;53.568;10.018;2024-03-02T13:07:47;16.40;67.40
16287;DHT22;8251;53.568;10.018;2024-03-02T13:10:14;16.60;67.80
16287;DHT22;8251;53.568;10.018;2024-03-02T13:12:41;16.60;67.80
16287;DHT22;8251;53.568;10.018;2024-03-02T13:15:08;16.60;67.60
16287;DHT22;8251;53.568;10.018;2024-03-02T13:17:36;16.60;67.50
16287;DHT22;8251;53.568;10.018;2024-03-02T13:20:03;16.60;67.90
16287;DHT22;8251;53.568;10.018;2024-03-02T13:22:35;16.60;68.10
16287;DHT22;8251;53.568;10.018;2024-03-02T13:25:02;16.60;67.80
16287;DHT22;8251;53.568;10.018;2024-03-02T13:27:30;16.60;68.10
16287;DHT22;8251;53.568;10.018;2024-03-02T13:29:57;16.60;68.30
16287;DHT22;8251;53.568;10.018;2024-03-02T13:32:24;16.50;68.30
16287;DHT22;8251;53.568;10.018;2024-03-02T13:34:51;16.50;68.80
16287;DHT22;8251;53.568;10.018;2024-03-02T13:37:18;16.60;68.80
16287;DHT22;8251;53.568;10.018;2024-03-02T13:39:46;16.50;68.80
16287;DHT22;8251;53.568;10.018;2024-03-02T13:42:13;16.50;69.90
16287;DHT22;8251;53.568;10.018;2024-03-02T13:44:47;16.40;69.00
16287;DHT22;8251;53.568;10.018;2024-03-02T13:47:22;16.40;69.40
16287;DHT22;8251;53.568;10.018;2024-03-02T13:49:49;16.40;69.30
16287;DHT22;8251;53.568;10.018;2024-03-02T13:52:16;16.40;69.40
16287;DHT22;8251;53.568;10.018;2024-03-02T13:54:47;16.50;69.30
16287;DHT22;8251;53.568;10.018;2024-03-02T13:57:31;16.50;69.60
16287;DHT22;8251;53.568;10.018;2024-03-02T13:59:58;16.60;69.50
16287;DHT22;8251;53.568;10.018;2024-03-02T14:02:27;16.70;69.50
16287;DHT22;8251;53.568;10.018;2024-03-02T14:04:53;16.80;69.50
16287;DHT22;8251;53.568;10.018;2024-03-02T14:07:20;16.90;68.90
16287;DHT22;8251;53.568;10.018;2024-03-02T14:09:49;16.90;68.20
16287;DHT22;8251;53.568;10.018;2024-03-02T14:12:16;16.90;68.50
16287;DHT22;8251;53.568;10.018;2024-03-02T14:14:43;17.00;68.20
16287;DHT22;8251;53.568;10.018;2024-03-02T14:17:13;17.00;68.20
16287;DHT22;8251;53.568;10.018;2024-03-02T14:19:41;17.10;68.10
16287;DHT22;8251;53.568;10.018;2024-03-02T14:22:08;17.10;67.20
16287;DHT22;8251;53.568;10.018;2024-03-02T14:24:34;17.10;67.30
16287;DHT22;8251;53.568;10.018;2024-03-02T14:27:03;17.10;67.30
16287;DHT22;8251;53.568;10.018;2024-03-02T14:29:30;17.10;67.70
16287;DHT22;8251;53.568;10.018;2024-03-02T14:31:58;17.00;67.40
16287;DHT22;8251;53.568;10.018;2024-03-02T14:34:25;17.00;67.50
16287;DHT22;8251;53.568;10.018;2024-03-02T14:36:52;17.00;68.10
16287;DHT22;8251;53.568;10.018;2024-03-02T14:39:19;17.10;68.60
16287;DHT22;8251;53.568;10.018;2024-03-02T14:41:46;17.00;67.70
16287;DHT22;8251;53.568;10.018;2024-03-02T14:44:14;16.90;67.70
16287;DHT22;8251;53.568;10.018;2024-03-02T14:46:42;16.90;67.90
16287;DHT22;8251;53.568;10.018;2024-03-02T14:49:09;16.90;67.70
16287;DHT22;8251;53.568;10.018;2024-03-02T14:51:36;16.80;67.30
16287;DHT22;8251;53.568;10.018;2024-03-02T14:54:04;16.80;67.20
16287;DHT22;8251;53.568;10.018;2024-03-02T14:56:31;16.80;67.10
16287;DHT22;8251;53.568;10.018;2024-03-02T14:59:00;16.80;66.90
16287;DHT22;8251;53.568;10.018;2024-03-02T15:01:29;16.80;66.60
16287;DHT22;8251;53.568;10.018;2024-03-02T15:03:55;16.70;67.10
16287;DHT22;8251;53.568;10.018;2024-03-02T15:06:22;16.60;67.20
16287;DHT22;8251;53.568;10.018;2024-03-02T15:08:50;16.50;67.80
16287;DHT22;8251;53.568;10.018;2024-03-02T15:11:19;16.50;68.10
16287;DHT22;8251;53.568;10.018;2024-03-02T15:13:48;16.50;68.40
16287;DHT22;8251;53.568;10.018;2024-03-02T15:16:15;16.50;68.90
16287;DHT22;8251;53.568;10.018;2024-03-02T15:18:43;16.40;69.00
16287;DHT22;8251;53.568;10.018;2024-03-02T15:21:11;16.40;69.20
16287;DHT22;8251;53.568;10.018;2024-03-02T15:23:38;16.40;69.60
16287;DHT22;8251;53.568;10.018;2024-03-02T15:26:04;16.40;69.70
16287;DHT22;8251;53.568;10.018;2024-03-02T15:28:31;16.40;70.00
16287;DHT22;8251;53.568;10.018;2024-03-02T15:31:04;16.30;70.00
16287;DHT22;8251;53.568;10.018;2024-03-02T15:33:31;16.30;70.30
16287;DHT22;8251;53.568;10.018;2024-03-02T15:36:00;16.30;70.60